createdAt,value
2019-01-29T00:02:21.264Z,-0.90
2019-01-29T00:04:50.545Z,-1.11
2019-01-29T00:07:20.126Z,-0.97
2019-01-29T00:12:56.821Z,-0.99
2019-01-29T00:15:26.128Z,-1.07
2019-01-29T00:17:55.948Z,-1.07
2019-01-29T00:23:00.009Z,-1.09
2019-01-29T00:25:29.565Z,-1.12
2019-01-29T00:27:58.851Z,-1.14
2019-01-29T00:30:28.327Z,-1.17
2019-01-29T00:32:57.637Z,-1.18
2019-01-29T00:35:27.152Z,-1.22
2019-01-29T00:37:56.447Z,-1.27
2019-01-29T00:40:44.786Z,-1.29
2019-01-29T00:43:14.178Z,-1.30
2019-01-29T00:45:43.460Z,-1.33
2019-01-29T00:48:12.957Z,-1.33
2019-01-29T00:50:42.249Z,-1.38
2019-01-29T00:53:11.717Z,-1.38
2019-01-29T00:55:41.002Z,-1.42
2019-01-29T00:58:10.340Z,-1.45
2019-01-29T01:00:58.837Z,-1.55
2019-01-29T01:03:47.186Z,-1.54
2019-01-29T01:06:16.596Z,-1.62
2019-01-29T01:08:46.013Z,-1.60
2019-01-29T01:11:27.612Z,-1.61
2019-01-29T01:13:57.049Z,-1.65
2019-01-29T01:16:26.319Z,-1.65
2019-01-29T01:18:55.681Z,-1.72
2019-01-29T01:21:24.982Z,-1.71
2019-01-29T01:24:13.319Z,-1.72
2019-01-29T01:26:42.697Z,-1.73
2019-01-29T01:29:12.086Z,-1.74
2019-01-29T01:31:41.415Z,-1.78
2019-01-29T01:34:10.730Z,-1.83
2019-01-29T01:39:33.779Z,-1.93
2019-01-29T01:42:03.141Z,-1.95
2019-01-29T01:44:32.571Z,-1.99
2019-01-29T01:47:01.878Z,-1.98
2019-01-29T01:49:31.606Z,-1.97
2019-01-29T01:52:00.924Z,-1.95
2019-01-29T01:54:30.374Z,-1.97
2019-01-29T01:56:59.688Z,-2.02
2019-01-29T01:59:29.169Z,-1.92
2019-01-29T02:01:58.460Z,-1.93
2019-01-29T02:04:28.051Z,-1.90
2019-01-29T02:06:57.335Z,-1.94
2019-01-29T02:09:26.883Z,-1.98
2019-01-29T02:11:56.196Z,-2.18
2019-01-29T02:14:25.615Z,-1.90
2019-01-29T02:16:54.897Z,-1.90
2019-01-29T02:19:24.212Z,-1.89
2019-01-29T02:21:53.523Z,-1.90
2019-01-29T02:24:23.049Z,-1.92
2019-01-29T02:26:52.327Z,-2.22
2019-01-29T02:29:21.962Z,-1.96
2019-01-29T02:32:10.172Z,-2.02
2019-01-29T02:34:39.496Z,-2.05
2019-01-29T02:37:09.166Z,-2.14
2019-01-29T02:39:38.477Z,-2.20
2019-01-29T02:42:26.826Z,-2.26
2019-01-29T02:45:15.104Z,-2.29
2019-01-29T02:47:44.499Z,-2.31
2019-01-29T02:50:34.296Z,-2.37
2019-01-29T02:53:03.575Z,-2.39
2019-01-29T02:55:33.137Z,-2.42
2019-01-29T02:58:21.472Z,-2.45
2019-01-29T03:03:25.818Z,-2.56
2019-01-29T03:05:55.115Z,-2.62
2019-01-29T03:08:24.505Z,-2.68
2019-01-29T03:10:53.788Z,-2.76
2019-01-29T03:13:23.549Z,-3.61
2019-01-29T03:15:52.829Z,-2.88
2019-01-29T03:18:22.286Z,-2.87
2019-01-29T03:20:51.612Z,-3.00
2019-01-29T03:23:27.299Z,-2.96
2019-01-29T03:25:52.141Z,-3.59
2019-01-29T03:28:21.525Z,-2.94
2019-01-29T03:30:50.912Z,-2.93
2019-01-29T03:33:20.235Z,-3.02
2019-01-29T03:35:49.584Z,-3.03
2019-01-29T03:38:18.903Z,-3.05
2019-01-29T03:40:48.188Z,-3.05
2019-01-29T03:43:17.635Z,-3.12
2019-01-29T03:46:05.980Z,-3.18
2019-01-29T03:48:35.331Z,-3.23
2019-01-29T03:53:53.261Z,-3.32
2019-01-29T03:56:22.539Z,-3.70
2019-01-29T03:58:52.187Z,-3.44
2019-01-29T04:01:21.494Z,-3.83
2019-01-29T04:03:50.889Z,-3.52
2019-01-29T04:06:20.194Z,-3.88
2019-01-29T04:08:49.777Z,-3.60
2019-01-29T04:11:19.066Z,-3.69
2019-01-29T04:13:48.858Z,-3.74
2019-01-29T04:16:18.166Z,-3.74
2019-01-29T04:18:47.728Z,-3.80
2019-01-29T04:21:17.051Z,-3.79
2019-01-29T04:26:34.966Z,-3.93
2019-01-29T04:29:23.316Z,-3.96
2019-01-29T04:31:52.614Z,-4.03
2019-01-29T04:34:22.213Z,-4.05
2019-01-29T04:36:51.473Z,-4.10
2019-01-29T04:39:21.010Z,-4.19
2019-01-29T04:41:50.297Z,-4.25
2019-01-29T04:44:19.633Z,-4.32
2019-01-29T04:46:48.932Z,-4.38
2019-01-29T04:49:18.214Z,-4.48
2019-01-29T04:51:47.601Z,-4.54
2019-01-29T04:54:16.955Z,-4.60
2019-01-29T04:56:46.244Z,-4.67
2019-01-29T04:59:15.642Z,-4.68
2019-01-29T05:01:44.962Z,-4.70
2019-01-29T05:04:14.447Z,-5.13
2019-01-29T05:06:43.759Z,-4.83
2019-01-29T05:09:13.038Z,-4.89
2019-01-29T05:11:42.344Z,-4.88
2019-01-29T05:14:23.012Z,-4.84
2019-01-29T05:16:52.314Z,-4.81
2019-01-29T05:19:21.601Z,-4.81
2019-01-29T05:21:51.106Z,-4.79
2019-01-29T05:24:20.393Z,-4.81
2019-01-29T05:26:49.962Z,-4.85
2019-01-29T05:29:19.284Z,-4.82
2019-01-29T05:31:48.635Z,-4.85
2019-01-29T05:34:17.924Z,-4.82
2019-01-29T05:36:47.289Z,-4.81
2019-01-29T05:39:16.566Z,-5.22
2019-01-29T05:41:46.098Z,-4.88
2019-01-29T05:44:15.402Z,-4.97
2019-01-29T05:46:45.247Z,-5.05
2019-01-29T05:49:14.611Z,-5.12
2019-01-29T05:51:44.237Z,-5.20
2019-01-29T05:54:16.466Z,-5.19
2019-01-29T05:56:44.704Z,-5.23
2019-01-29T05:59:14.034Z,-5.28
2019-01-29T06:01:43.374Z,-5.36
2019-01-29T06:04:12.711Z,-5.49
2019-01-29T06:06:42.232Z,-5.57
2019-01-29T06:09:11.536Z,-5.94
2019-01-29T06:11:40.925Z,-5.68
2019-01-29T06:14:10.410Z,-5.51
2019-01-29T06:16:40.572Z,-5.44
2019-01-29T06:19:09.931Z,-5.91
2019-01-29T06:21:58.361Z,-5.28
2019-01-29T06:24:28.554Z,-5.58
2019-01-29T06:26:58.254Z,-5.38
2019-01-29T06:29:28.414Z,-5.52
2019-01-29T06:31:58.051Z,-5.66
2019-01-29T06:34:28.512Z,-5.82
2019-01-29T06:37:00.368Z,-5.90
2019-01-29T06:39:50.004Z,-6.02
2019-01-29T06:42:19.357Z,-6.13
2019-01-29T06:44:49.054Z,-6.24
2019-01-29T06:47:18.334Z,-6.31
2019-01-29T06:49:48.115Z,-6.38
2019-01-29T06:52:17.376Z,-6.43
2019-01-29T06:54:46.979Z,-6.49
2019-01-29T06:57:16.313Z,-6.56
2019-01-29T07:00:04.712Z,-6.55
2019-01-29T07:02:34.378Z,-6.84
2019-01-29T07:07:52.097Z,-6.60
2019-01-29T07:10:21.884Z,-6.58
2019-01-29T07:12:51.170Z,-6.53
2019-01-29T07:15:51.409Z,-6.53
2019-01-29T07:18:39.618Z,-6.55
2019-01-29T07:21:10.517Z,-6.61
2019-01-29T07:23:39.893Z,-6.65
2019-01-29T07:26:28.239Z,-6.67
2019-01-29T07:28:57.669Z,-6.71
2019-01-29T07:31:27.009Z,-6.76
2019-01-29T07:34:15.310Z,-6.78
2019-01-29T07:36:44.630Z,-6.83
2019-01-29T07:39:13.938Z,-6.89
2019-01-29T07:41:43.331Z,-6.94
2019-01-29T07:44:31.766Z,-6.99
2019-01-29T07:47:01.193Z,-7.03
2019-01-29T07:49:30.479Z,-7.05
2019-01-29T07:52:18.784Z,-7.10
2019-01-29T07:54:51.204Z,-7.16
2019-01-29T07:57:19.399Z,-7.17
2019-01-29T07:59:48.720Z,-7.19
2019-01-29T08:02:18.116Z,-7.20
2019-01-29T08:04:47.387Z,-7.21
2019-01-29T08:07:16.692Z,-7.23
2019-01-29T08:09:46.072Z,-7.22
2019-01-29T08:12:15.382Z,-7.21
2019-01-29T08:17:38.252Z,-7.20
2019-01-29T08:22:57.229Z,-7.15
2019-01-29T08:25:26.522Z,-7.76
2019-01-29T08:27:56.034Z,-7.11
2019-01-29T08:30:25.323Z,-7.68
2019-01-29T08:32:54.826Z,-7.05
2019-01-29T08:35:24.131Z,-7.31
2019-01-29T08:37:53.681Z,-6.96
2019-01-29T08:40:23.599Z,-7.23
2019-01-29T08:42:52.995Z,-6.89
2019-01-29T08:45:22.294Z,-6.88
2019-01-29T08:47:51.742Z,-6.85
2019-01-29T08:50:22.213Z,-7.14
2019-01-29T08:53:10.546Z,-6.76
2019-01-29T08:55:40.213Z,-6.73
2019-01-29T08:58:11.449Z,-6.68
2019-01-29T09:00:40.493Z,-6.64
2019-01-29T09:03:09.791Z,-6.47
2019-01-29T09:05:39.228Z,-6.31
2019-01-29T09:08:47.904Z,-6.30
2019-01-29T09:11:17.222Z,-6.17
2019-01-29T09:13:46.508Z,-5.81
2019-01-29T09:16:15.980Z,-5.39
2019-01-29T09:18:45.270Z,-5.47
2019-01-29T09:21:14.546Z,-5.56
2019-01-29T09:23:43.843Z,-5.45
2019-01-29T09:26:13.294Z,-5.36
2019-01-29T09:28:42.570Z,-5.80
2019-01-29T09:31:11.936Z,-5.46
2019-01-29T09:33:41.246Z,-5.51
2019-01-29T09:38:59.188Z,-5.55
2019-01-29T09:41:28.464Z,-5.49
2019-01-29T09:43:57.988Z,-5.45
2019-01-29T09:46:27.293Z,-6.04
2019-01-29T09:48:56.923Z,-5.39
2019-01-29T09:51:26.196Z,-5.33
2019-01-29T09:53:55.854Z,-5.29
2019-01-29T09:56:25.144Z,-5.23
2019-01-29T09:58:54.449Z,-5.19
2019-01-29T10:01:23.745Z,-5.47
2019-01-29T10:03:53.260Z,-5.11
2019-01-29T10:06:22.566Z,-5.35
2019-01-29T10:11:40.640Z,-4.98
2019-01-29T10:14:09.934Z,-4.96
2019-01-29T10:16:39.304Z,-4.97
2019-01-29T10:19:08.604Z,-4.94
2019-01-29T10:21:38.035Z,-4.88
2019-01-29T10:24:07.308Z,-4.82
2019-01-29T10:26:37.024Z,-4.75
2019-01-29T10:29:06.318Z,-4.72
2019-01-29T10:31:35.944Z,-4.66
2019-01-29T10:34:05.322Z,-4.62
2019-01-29T10:36:36.473Z,-4.58
2019-01-29T10:39:46.114Z,-4.52
2019-01-29T10:42:34.403Z,-4.46
2019-01-29T10:45:03.832Z,-4.37
2019-01-29T10:47:33.202Z,-4.33
2019-01-29T10:50:21.631Z,-4.27
2019-01-29T10:52:51.521Z,-4.20
2019-01-29T10:58:09.189Z,-4.07
2019-01-29T11:00:41.186Z,-4.01
2019-01-29T11:03:50.397Z,-3.96
2019-01-29T11:06:19.747Z,-3.90
2019-01-29T11:08:49.064Z,-3.77
2019-01-29T11:11:18.569Z,-3.71
2019-01-29T11:13:47.838Z,-3.65
2019-01-29T11:16:17.317Z,-3.55
2019-01-29T11:18:46.611Z,-3.53
2019-01-29T11:21:15.954Z,-3.49
2019-01-29T11:23:45.242Z,-3.48
2019-01-29T11:29:09.965Z,-3.74
2019-01-29T11:31:41.366Z,-3.36
2019-01-29T11:34:10.743Z,-3.33
2019-01-29T11:36:40.048Z,-3.31
2019-01-29T11:39:49.610Z,-3.27
2019-01-29T11:42:18.906Z,-3.24
2019-01-29T11:44:48.185Z,-3.52
2019-01-29T11:47:36.620Z,-3.15
2019-01-29T11:55:21.426Z,-3.01
2019-01-29T11:58:30.107Z,-2.99
2019-01-29T12:03:53.055Z,-2.82
2019-01-29T12:06:22.348Z,-2.71
2019-01-29T12:08:51.844Z,-2.67
2019-01-29T12:11:21.211Z,-2.62
2019-01-29T12:13:50.763Z,-2.62
2019-01-29T12:16:20.061Z,-2.61
2019-01-29T12:18:49.483Z,-2.57
2019-01-29T12:21:18.999Z,-2.53
2019-01-29T12:26:36.694Z,-2.43
2019-01-29T12:29:25.066Z,-2.40
2019-01-29T12:31:54.463Z,-2.38
2019-01-29T12:34:23.771Z,-2.42
2019-01-29T12:36:53.082Z,-2.43
2019-01-29T12:39:22.388Z,-2.44
2019-01-29T12:41:51.733Z,-2.45
2019-01-29T12:44:21.031Z,-2.55
2019-01-29T12:46:50.406Z,-2.45
2019-01-29T12:49:19.684Z,-2.44
2019-01-29T12:52:08.071Z,-2.42
2019-01-29T12:54:37.617Z,-2.38
2019-01-29T12:57:06.906Z,-2.49
2019-01-29T12:59:36.395Z,-2.33
2019-01-29T13:05:53.872Z,-2.23
2019-01-29T13:08:23.184Z,-2.45
2019-01-29T13:10:52.583Z,-2.34
2019-01-29T13:15:56.857Z,-2.41
2019-01-29T13:18:26.332Z,-2.41
2019-01-29T13:20:55.621Z,-2.47
2019-01-29T13:26:21.033Z,-2.75
2019-01-29T13:28:50.346Z,-2.48
2019-01-29T13:33:54.341Z,-2.49
2019-01-29T13:36:24.115Z,-2.52
2019-01-29T13:38:53.422Z,-2.53
2019-01-29T13:41:22.956Z,-2.56
2019-01-29T13:43:52.258Z,-2.58
2019-01-29T13:46:28.959Z,-2.63
2019-01-29T13:48:58.291Z,-2.68
2019-01-29T13:51:46.777Z,-3.03
2019-01-29T13:54:16.070Z,-2.76
2019-01-29T13:56:45.405Z,-2.81
2019-01-29T13:59:14.693Z,-2.86
2019-01-29T14:02:03.116Z,-2.93
2019-01-29T14:04:32.540Z,-2.98
2019-01-29T14:07:01.841Z,-3.06
2019-01-29T14:09:50.108Z,-3.10
2019-01-29T14:12:19.496Z,-3.14
2019-01-29T14:14:48.793Z,-3.20
2019-01-29T14:17:18.098Z,-3.25
2019-01-29T14:19:47.362Z,-3.31
2019-01-29T14:22:16.912Z,-3.35
2019-01-29T14:25:05.113Z,-3.40
2019-01-29T14:27:34.543Z,-3.45
2019-01-29T14:33:12.455Z,-3.57
2019-01-29T14:35:41.740Z,-4.27
2019-01-29T14:38:49.194Z,-3.68
2019-01-29T14:41:38.904Z,-3.89
2019-01-29T14:44:48.963Z,-3.81
2019-01-29T14:47:18.249Z,-3.90
2019-01-29T14:49:47.582Z,-3.97
2019-01-29T14:54:52.274Z,-4.08
2019-01-29T14:57:21.678Z,-4.79
2019-01-29T14:59:51.095Z,-4.18
2019-01-29T15:02:20.371Z,-4.24
2019-01-29T15:04:49.895Z,-4.21
2019-01-29T15:07:19.188Z,-4.24
2019-01-29T15:09:48.570Z,-4.26
2019-01-29T15:12:17.919Z,-4.28
2019-01-29T15:14:47.403Z,-4.27
2019-01-29T15:20:13.397Z,-4.25
2019-01-29T15:23:01.766Z,-4.29
2019-01-29T15:25:50.032Z,-4.33
2019-01-29T15:28:19.322Z,-4.40
2019-01-29T15:30:49.089Z,-4.33
2019-01-29T15:33:18.379Z,-4.30
2019-01-29T15:38:28.635Z,-4.67
2019-01-29T15:40:58.175Z,-4.36
2019-01-29T15:43:27.459Z,-4.37
2019-01-29T15:45:56.958Z,-4.35
2019-01-29T15:48:26.270Z,-4.35
2019-01-29T15:50:55.966Z,-4.36
2019-01-29T15:53:25.269Z,-4.40
2019-01-29T15:55:54.933Z,-4.41
2019-01-29T15:58:24.217Z,-4.40
2019-01-29T16:00:53.919Z,-4.41
2019-01-29T16:03:23.210Z,-4.43
2019-01-29T16:05:52.642Z,-4.42
2019-01-29T16:08:21.930Z,-4.42
2019-01-29T16:10:51.371Z,-4.45
2019-01-29T16:13:20.675Z,-4.48
2019-01-29T16:16:09.367Z,-4.52
2019-01-29T16:18:39.083Z,-4.56
2019-01-29T16:24:03.117Z,-4.56
2019-01-29T16:26:32.851Z,-4.60
2019-01-29T16:29:02.947Z,-4.64
2019-01-29T16:31:51.971Z,-4.65
2019-01-29T16:34:21.248Z,-4.68
2019-01-29T16:36:50.921Z,-4.71
2019-01-29T16:39:20.230Z,-4.73
2019-01-29T16:41:49.676Z,-4.79
2019-01-29T16:44:18.994Z,-4.84
2019-01-29T16:46:48.399Z,-4.89
2019-01-29T16:49:17.882Z,-4.94
2019-01-29T16:51:47.282Z,-4.99
2019-01-29T16:54:16.661Z,-5.03
2019-01-29T16:56:47.202Z,-5.04
2019-01-29T16:59:16.985Z,-5.00
2019-01-29T17:04:48.068Z,-4.94
2019-01-29T17:07:17.714Z,-4.94
2019-01-29T17:09:48.681Z,-4.93
2019-01-29T17:15:01.600Z,-4.93
2019-01-29T17:17:52.007Z,-4.93
2019-01-29T17:20:33.013Z,-4.96
2019-01-29T17:25:53.098Z,-5.30
2019-01-29T17:28:25.014Z,-4.97
2019-01-29T17:30:55.663Z,-4.97
2019-01-29T17:34:04.286Z,-5.00
2019-01-29T17:36:33.622Z,-4.99
2019-01-29T17:39:05.029Z,-4.98
2019-01-29T17:44:31.167Z,-5.00
2019-01-29T17:47:21.241Z,-5.00
2019-01-29T17:49:51.056Z,-4.98
2019-01-29T17:52:20.342Z,-4.97
2019-01-29T17:54:49.948Z,-4.97
2019-01-29T17:57:19.261Z,-4.97
2019-01-29T17:59:48.690Z,-4.98
2019-01-29T18:02:17.975Z,-4.99
2019-01-29T18:04:47.293Z,-5.01
2019-01-29T18:07:16.607Z,-5.03
2019-01-29T18:09:46.239Z,-5.03
2019-01-29T18:12:15.656Z,-5.01
2019-01-29T18:14:45.010Z,-4.97
2019-01-29T18:17:14.415Z,-4.93
2019-01-29T18:19:43.743Z,-4.94
2019-01-29T18:22:13.031Z,-4.91
2019-01-29T18:24:42.359Z,-4.91
2019-01-29T18:27:11.662Z,-4.88
2019-01-29T18:29:41.066Z,-4.80
2019-01-29T18:32:10.297Z,-4.73
2019-01-29T18:34:39.652Z,-4.73
2019-01-29T18:37:08.972Z,-4.74
2019-01-29T18:39:57.255Z,-4.78
2019-01-29T18:42:26.587Z,-4.80
2019-01-29T18:44:55.997Z,-4.86
2019-01-29T18:47:25.326Z,-4.83
2019-01-29T18:49:54.618Z,-4.84
2019-01-29T18:52:23.942Z,-4.88
2019-01-29T18:54:53.264Z,-4.86
2019-01-29T18:57:22.685Z,-4.92
2019-01-29T18:59:52.062Z,-4.86
2019-01-29T19:05:34.678Z,-4.86
2019-01-29T19:08:23.226Z,-4.90
2019-01-29T19:10:52.522Z,-4.90
2019-01-29T19:13:21.994Z,-4.89
2019-01-29T19:18:27.102Z,-4.93
2019-01-29T19:20:56.411Z,-4.94
2019-01-29T19:26:01.228Z,-4.98
2019-01-29T19:28:30.564Z,-5.01
2019-01-29T19:31:00.240Z,-5.01
2019-01-29T19:33:29.587Z,-5.02
2019-01-29T19:35:59.159Z,-5.03
2019-01-29T19:38:28.466Z,-5.30
2019-01-29T19:40:58.014Z,-5.03
2019-01-29T19:43:27.409Z,-5.03
2019-01-29T19:45:56.841Z,-4.95
2019-01-29T19:48:26.230Z,-4.90
2019-01-29T19:50:55.689Z,-4.88
2019-01-29T19:53:24.976Z,-4.84
2019-01-29T19:55:54.286Z,-4.78
2019-01-29T19:58:31.968Z,-4.79
2019-01-29T20:00:54.947Z,-4.83
2019-01-29T20:03:24.248Z,-4.85
2019-01-29T20:05:53.806Z,-4.83
2019-01-29T20:08:42.202Z,-5.11
2019-01-29T20:11:11.494Z,-4.78
2019-01-29T20:13:40.905Z,-4.80
2019-01-29T20:16:10.248Z,-4.78
2019-01-29T20:18:58.535Z,-4.80
2019-01-29T20:21:28.206Z,-4.85
2019-01-29T20:23:57.555Z,-4.92
2019-01-29T20:26:27.263Z,-4.96
2019-01-29T20:28:56.622Z,-5.00
2019-01-29T20:31:26.417Z,-5.05
2019-01-29T20:33:55.728Z,-5.09
2019-01-29T20:36:25.191Z,-5.10
2019-01-29T20:38:54.538Z,-5.13
2019-01-29T20:41:24.087Z,-5.11
2019-01-29T20:43:53.445Z,-5.06
2019-01-29T20:46:22.783Z,-4.96
2019-01-29T20:48:52.251Z,-4.88
2019-01-29T20:51:21.856Z,-4.77
2019-01-29T20:53:51.172Z,-4.64
2019-01-29T20:56:20.589Z,-4.52
2019-01-29T20:58:52.749Z,-4.45
2019-01-29T21:01:21.619Z,-4.39
2019-01-29T21:03:50.931Z,-4.64
2019-01-29T21:06:20.348Z,-4.31
2019-01-29T21:08:49.639Z,-4.31
2019-01-29T21:11:19.297Z,-4.28
2019-01-29T21:13:48.629Z,-4.23
2019-01-29T21:16:18.367Z,-4.20
2019-01-29T21:18:47.674Z,-4.14
2019-01-29T21:23:52.178Z,-4.02
2019-01-29T21:26:21.572Z,-3.93
2019-01-29T21:28:50.985Z,-3.90
2019-01-29T21:31:20.276Z,-3.87
2019-01-29T21:33:49.701Z,-3.83
2019-01-29T21:36:18.994Z,-3.79
2019-01-29T21:38:48.292Z,-3.75
2019-01-29T21:41:17.572Z,-3.72
2019-01-29T21:43:46.912Z,-3.70
2019-01-29T21:46:35.258Z,-3.70
2019-01-29T21:49:04.691Z,-3.70
2019-01-29T21:51:34.078Z,-3.69
2019-01-29T21:54:03.411Z,-3.70
2019-01-29T21:56:32.775Z,-3.71
2019-01-29T21:59:02.081Z,-3.70
2019-01-29T22:01:31.378Z,-3.72
2019-01-29T22:04:00.675Z,-3.74
2019-01-29T22:06:29.975Z,-3.81
2019-01-29T22:08:59.492Z,-3.82
2019-01-29T22:11:28.787Z,-3.96
2019-01-29T22:14:00.628Z,-3.86
2019-01-29T22:16:29.224Z,-4.18
2019-01-29T22:18:58.506Z,-3.86
2019-01-29T22:21:27.794Z,-3.97
2019-01-29T22:23:57.117Z,-3.80
2019-01-29T22:26:26.422Z,-3.74
2019-01-29T22:28:55.746Z,-3.70
2019-01-29T22:31:25.043Z,-3.65
2019-01-29T22:33:54.499Z,-3.64
2019-01-29T22:36:23.827Z,-3.73
2019-01-29T22:38:53.291Z,-3.56
2019-01-29T22:41:22.568Z,-4.17
2019-01-29T22:49:01.187Z,-3.54
2019-01-29T22:51:30.465Z,-3.58
2019-01-29T22:53:59.904Z,-3.55
2019-01-29T22:56:48.295Z,-3.56
2019-01-29T22:59:18.418Z,-3.56
2019-01-29T23:01:48.870Z,-3.58
2019-01-29T23:04:39.420Z,-3.59
2019-01-29T23:10:15.859Z,-3.55
2019-01-29T23:12:45.154Z,-3.56
2019-01-29T23:15:15.910Z,-3.50
2019-01-29T23:17:45.223Z,-3.80
2019-01-29T23:20:35.175Z,-3.45
2019-01-29T23:23:04.914Z,-3.43
2019-01-29T23:25:45.807Z,-3.68
2019-01-29T23:28:34.122Z,-3.34
2019-01-29T23:31:22.464Z,-3.30
2019-01-29T23:33:52.118Z,-3.25
2019-01-29T23:36:21.403Z,-3.22
2019-01-29T23:38:51.041Z,-3.20
2019-01-29T23:41:20.329Z,-3.17
2019-01-29T23:43:49.854Z,-3.14
2019-01-29T23:46:19.138Z,-3.13
2019-01-29T23:48:48.495Z,-3.15
2019-01-29T23:51:17.786Z,-3.10
2019-01-29T23:53:47.290Z,-3.11
2019-01-29T23:56:16.626Z,-3.07
2019-01-29T23:58:45.972Z,-3.06
